createdAt,value
2022-12-01T00:00:38.749Z,28.40
2022-12-01T00:03:26.521Z,30.33
2022-12-01T00:06:16.568Z,27.77
2022-12-01T00:09:20.745Z,28.43
2022-12-01T00:12:08.183Z,23.27
2022-12-01T00:15:00.822Z,25.50
2022-12-01T00:17:49.376Z,29.50
2022-12-01T00:20:37.215Z,29.03
2022-12-01T00:23:24.497Z,24.50
2022-12-01T00:26:10.799Z,24.33
2022-12-01T00:29:00.384Z,26.13
2022-12-01T00:31:47.553Z,19.53
2022-12-01T00:34:37.913Z,20.47
2022-12-01T00:37:24.721Z,23.47
2022-12-01T00:40:13.340Z,26.73
2022-12-01T00:43:00.503Z,24.83
2022-12-01T00:45:47.631Z,23.73
2022-12-01T00:48:34.606Z,23.43
2022-12-01T00:51:22.556Z,25.63
2022-12-01T00:54:09.724Z,24.33
2022-12-01T00:56:56.587Z,25.10
2022-12-01T00:59:43.415Z,23.63
2022-12-01T01:02:30.494Z,30.77
2022-12-01T01:05:17.599Z,27.37
2022-12-01T01:08:08.282Z,25.23
2022-12-01T01:10:54.911Z,28.83
2022-12-01T01:13:41.682Z,27.73
2022-12-01T01:16:29.243Z,24.10
2022-12-01T01:19:17.453Z,28.00
2022-12-01T01:22:04.295Z,25.50
2022-12-01T01:24:52.848Z,32.00
2022-12-01T01:27:39.747Z,27.03
2022-12-01T01:30:26.612Z,32.00
2022-12-01T01:33:13.575Z,23.50
2022-12-01T01:36:00.964Z,26.40
2022-12-01T01:38:51.166Z,29.03
2022-12-01T01:41:39.352Z,22.00
2022-12-01T01:44:51.975Z,26.73
2022-12-01T01:47:41.655Z,21.37
2022-12-01T01:50:30.536Z,26.10
2022-12-01T01:53:17.593Z,23.47
2022-12-01T01:56:06.592Z,20.97
2022-12-01T01:58:55.550Z,23.97
2022-12-01T02:01:42.301Z,20.10
2022-12-01T02:04:30.419Z,26.00
2022-12-01T02:07:20.585Z,25.47
2022-12-01T02:10:11.969Z,21.80
2022-12-01T02:13:16.997Z,22.23
2022-12-01T02:16:15.496Z,24.40
2022-12-01T02:19:30.508Z,18.20
2022-12-01T02:22:30.707Z,19.77
2022-12-01T02:25:33.574Z,23.40
2022-12-01T02:28:49.267Z,17.47
2022-12-01T02:31:45.233Z,20.80
2022-12-01T02:34:44.609Z,21.57
2022-12-01T02:37:37.320Z,27.33
2022-12-01T02:40:31.709Z,24.00
2022-12-01T02:43:28.303Z,26.27
2022-12-01T02:46:21.737Z,27.27
2022-12-01T02:49:19.474Z,25.20
2022-12-01T02:52:08.102Z,27.70
2022-12-01T02:54:56.201Z,19.47
2022-12-01T02:57:43.050Z,21.03
2022-12-01T03:00:31.830Z,22.73
2022-12-01T03:03:40.058Z,21.30
2022-12-01T03:06:42.499Z,22.97
2022-12-01T03:09:42.640Z,21.40
2022-12-01T03:12:38.660Z,19.53
2022-12-01T03:15:36.816Z,22.30
2022-12-01T03:18:34.061Z,19.43
2022-12-01T03:21:33.603Z,20.20
2022-12-01T03:24:27.348Z,18.87
2022-12-01T03:27:17.742Z,21.67
2022-12-01T03:30:10.251Z,20.43
2022-12-01T03:33:04.714Z,23.77
2022-12-01T03:35:58.784Z,20.63
2022-12-01T03:38:55.596Z,24.43
2022-12-01T03:41:50.271Z,21.10
2022-12-01T03:44:45.838Z,26.60
2022-12-01T03:47:35.705Z,22.67
2022-12-01T03:50:24.290Z,21.17
2022-12-01T03:53:19.424Z,18.87
2022-12-01T03:56:09.165Z,22.73
2022-12-01T03:59:01.254Z,28.83
2022-12-01T04:01:48.308Z,20.17
2022-12-01T04:04:49.244Z,27.77
2022-12-01T04:07:36.146Z,22.73
2022-12-01T04:10:22.924Z,24.90
2022-12-01T04:13:16.617Z,23.63
2022-12-01T04:16:03.366Z,26.73
2022-12-01T04:18:50.215Z,20.23
2022-12-01T04:21:37.095Z,28.67
2022-12-01T04:24:23.522Z,31.10
2022-12-01T04:27:10.518Z,25.77
2022-12-01T04:29:58.657Z,30.90
2022-12-01T04:32:45.770Z,26.30
2022-12-01T04:35:32.498Z,23.57
2022-12-01T04:38:19.507Z,31.10
2022-12-01T04:41:10.638Z,26.33
2022-12-01T04:43:57.474Z,29.03
2022-12-01T04:46:45.992Z,27.90
2022-12-01T04:49:33.468Z,30.83
2022-12-01T04:52:20.261Z,28.67
2022-12-01T04:55:08.444Z,28.30
2022-12-01T04:57:54.953Z,29.77
2022-12-01T05:00:42.053Z,25.20
2022-12-01T05:03:30.644Z,25.20
2022-12-01T05:06:21.460Z,28.63
2022-12-01T05:09:12.192Z,29.30
2022-12-01T05:12:02.377Z,27.03
2022-12-01T05:14:48.953Z,25.73
2022-12-01T05:17:37.264Z,27.30
2022-12-01T05:20:44.627Z,40.87
2022-12-01T05:23:34.608Z,34.63
2022-12-01T05:26:21.569Z,46.23
2022-12-01T05:29:08.808Z,28.97
2022-12-01T05:31:56.846Z,34.23
2022-12-01T05:34:43.631Z,33.10
2022-12-01T05:37:33.249Z,26.33
2022-12-01T05:40:20.046Z,28.13
2022-12-01T05:43:08.405Z,28.47
2022-12-01T05:45:56.462Z,31.10
2022-12-01T05:48:43.613Z,24.83
2022-12-01T05:51:30.139Z,31.50
2022-12-01T05:54:18.425Z,39.37
2022-12-01T05:57:05.048Z,33.43
2022-12-01T05:59:52.224Z,33.23
2022-12-01T06:02:38.866Z,32.00
2022-12-01T06:05:25.851Z,30.93
2022-12-01T06:08:12.315Z,28.03
2022-12-01T06:11:01.000Z,32.03
2022-12-01T06:13:47.702Z,35.97
2022-12-01T06:16:34.962Z,33.67
2022-12-01T06:19:22.071Z,38.57
2022-12-01T06:22:08.754Z,40.77
2022-12-01T06:24:55.797Z,48.37
2022-12-01T06:27:44.185Z,51.53
2022-12-01T06:30:31.236Z,35.43
2022-12-01T06:33:18.048Z,37.13
2022-12-01T06:36:07.558Z,32.73
2022-12-01T06:38:54.407Z,27.83
2022-12-01T06:41:41.021Z,31.70
2022-12-01T06:44:29.848Z,29.80
2022-12-01T06:47:17.199Z,30.47
2022-12-01T06:50:05.308Z,28.00
2022-12-01T06:52:52.894Z,28.07
2022-12-01T06:55:40.697Z,24.40
2022-12-01T06:58:27.615Z,27.80
2022-12-01T07:01:17.053Z,23.83
2022-12-01T07:04:03.786Z,26.73
2022-12-01T07:06:50.464Z,26.00
2022-12-01T07:09:37.245Z,31.20
2022-12-01T07:12:23.812Z,25.80
2022-12-01T07:15:12.018Z,22.73
2022-12-01T07:18:00.404Z,26.50
2022-12-01T07:20:47.856Z,23.50
2022-12-01T07:23:35.875Z,26.20
2022-12-01T07:26:22.525Z,23.60
2022-12-01T07:29:09.688Z,26.43
2022-12-01T07:31:56.335Z,15.83
2022-12-01T07:34:44.561Z,17.00
2022-12-01T07:37:31.630Z,20.77
2022-12-01T07:40:18.900Z,15.97
2022-12-01T07:43:05.688Z,23.83
2022-12-01T07:45:52.697Z,21.00
2022-12-01T07:48:41.786Z,17.70
2022-12-01T07:51:30.605Z,18.87
2022-12-01T07:54:20.119Z,20.20
2022-12-01T07:57:06.531Z,15.67
2022-12-01T07:59:53.640Z,20.97
2022-12-01T08:02:40.520Z,28.03
2022-12-01T08:05:30.563Z,20.07
2022-12-01T08:08:18.968Z,23.43
2022-12-01T08:11:09.047Z,19.07
2022-12-01T08:13:58.875Z,20.40
2022-12-01T08:16:45.928Z,24.10
2022-12-01T08:19:33.024Z,22.03
2022-12-01T08:22:19.946Z,20.00
2022-12-01T08:25:09.465Z,22.83
2022-12-01T08:27:56.401Z,19.17
2022-12-01T08:30:43.269Z,18.83
2022-12-01T08:33:30.510Z,24.83
2022-12-01T08:36:18.397Z,25.13
2022-12-01T08:39:05.636Z,25.30
2022-12-01T08:41:53.876Z,21.83
2022-12-01T08:44:40.956Z,19.80
2022-12-01T08:47:30.071Z,19.63
2022-12-01T08:50:17.254Z,26.57
2022-12-01T08:53:04.200Z,23.13
2022-12-01T08:55:50.906Z,28.53
2022-12-01T08:58:39.242Z,21.13
2022-12-01T09:01:26.893Z,28.83
2022-12-01T09:04:13.708Z,24.80
2022-12-01T09:07:00.562Z,25.83
2022-12-01T09:09:49.158Z,29.10
2022-12-01T09:12:36.527Z,31.53
2022-12-01T09:15:25.073Z,34.97
2022-12-01T09:18:11.674Z,28.10
2022-12-01T09:20:59.619Z,30.97
2022-12-01T09:23:47.124Z,29.07
2022-12-01T09:26:35.198Z,30.27
2022-12-01T09:29:22.045Z,33.53
2022-12-01T09:32:10.228Z,34.10
2022-12-01T09:34:57.185Z,33.10
2022-12-01T09:37:44.603Z,32.40
2022-12-01T09:40:37.622Z,29.97
2022-12-01T09:43:30.724Z,32.43
2022-12-01T09:46:26.109Z,30.90
2022-12-01T09:49:25.181Z,29.90
2022-12-01T09:52:16.468Z,28.63
2022-12-01T09:55:03.794Z,30.13
2022-12-01T09:57:54.689Z,34.77
2022-12-01T10:00:45.742Z,34.93
2022-12-01T10:03:40.536Z,32.63
2022-12-01T10:06:38.940Z,32.50
2022-12-01T10:09:36.779Z,36.03
2022-12-01T10:12:27.802Z,31.37
2022-12-01T10:15:33.249Z,38.90
2022-12-01T10:18:47.163Z,38.27
2022-12-01T10:21:56.257Z,38.13
2022-12-01T10:24:56.263Z,42.60
2022-12-01T10:28:02.995Z,46.97
2022-12-01T10:30:52.609Z,38.03
2022-12-01T10:33:58.400Z,47.87
2022-12-01T10:36:46.988Z,43.17
2022-12-01T10:39:41.112Z,43.87
2022-12-01T10:42:37.870Z,44.03
2022-12-01T10:45:28.164Z,39.30
2022-12-01T10:48:18.631Z,41.73
2022-12-01T10:51:19.511Z,43.53
2022-12-01T10:54:12.249Z,44.03
2022-12-01T10:57:00.444Z,46.87
2022-12-01T10:59:54.364Z,44.07
2022-12-01T11:02:45.519Z,45.77
2022-12-01T11:05:39.386Z,48.23
2022-12-01T11:08:34.413Z,44.50
2022-12-01T11:11:35.528Z,43.40
2022-12-01T11:14:28.509Z,44.93
2022-12-01T11:17:35.936Z,47.10
2022-12-01T11:20:34.428Z,46.27
2022-12-01T11:23:29.780Z,50.03
2022-12-01T11:26:22.359Z,41.10
2022-12-01T11:29:37.161Z,44.60
2022-12-01T11:32:27.604Z,43.27
2022-12-01T11:35:21.026Z,41.90
2022-12-01T11:38:34.370Z,48.53
2022-12-01T11:41:33.777Z,44.83
2022-12-01T11:44:49.568Z,42.33
2022-12-01T11:47:29.979Z,45.30
2022-12-01T11:50:27.679Z,42.10
2022-12-01T11:53:29.535Z,44.50
2022-12-01T11:56:23.291Z,41.30
2022-12-01T11:59:16.659Z,45.80
2022-12-01T12:02:23.510Z,41.43
2022-12-01T12:06:38.376Z,44.13
2022-12-01T12:09:45.893Z,41.83
2022-12-01T12:12:58.510Z,41.37
2022-12-01T12:16:01.343Z,41.67
2022-12-01T12:19:11.942Z,43.63
2022-12-01T12:22:17.338Z,46.33
2022-12-01T12:25:28.573Z,36.53
2022-12-01T12:28:34.637Z,41.10
2022-12-01T12:31:33.964Z,39.70
2022-12-01T12:34:43.762Z,35.20
2022-12-01T12:37:44.516Z,37.90
2022-12-01T12:40:42.757Z,43.93
2022-12-01T12:43:40.975Z,40.50
2022-12-01T12:46:43.887Z,33.57
2022-12-01T12:49:45.541Z,33.47
2022-12-01T12:52:36.805Z,37.33
2022-12-01T12:55:31.264Z,40.37
2022-12-01T12:58:25.012Z,39.03
2022-12-01T13:01:20.502Z,39.67
2022-12-01T13:04:13.481Z,37.40
2022-12-01T13:07:07.426Z,45.93
2022-12-01T13:10:01.423Z,43.50
2022-12-01T13:12:58.600Z,42.00
2022-12-01T13:15:47.853Z,38.00
2022-12-01T13:18:42.928Z,48.37
2022-12-01T13:21:40.708Z,46.70
2022-12-01T13:24:32.416Z,47.27
2022-12-01T13:27:24.503Z,44.00
2022-12-01T13:30:21.430Z,43.53
2022-12-01T13:33:09.122Z,43.07
2022-12-01T13:36:30.040Z,51.97
2022-12-01T13:39:08.785Z,48.73
2022-12-01T13:42:04.784Z,46.00
2022-12-01T13:44:56.906Z,40.90
2022-12-01T13:47:52.678Z,44.43
2022-12-01T13:51:04.992Z,41.00
2022-12-01T13:54:02.824Z,44.47
2022-12-01T13:57:04.861Z,38.63
2022-12-01T14:00:23.942Z,39.83
2022-12-01T14:03:41.138Z,36.43
2022-12-01T14:06:38.989Z,41.17
2022-12-01T14:09:33.354Z,39.40
2022-12-01T14:12:28.620Z,43.33
2022-12-01T14:15:31.493Z,38.77
2022-12-01T14:18:35.868Z,40.90
2022-12-01T14:21:47.768Z,38.70
2022-12-01T14:24:40.594Z,36.27
2022-12-01T14:27:39.110Z,35.37
2022-12-01T14:31:05.057Z,38.93
2022-12-01T14:33:58.793Z,38.17
2022-12-01T14:36:50.499Z,33.50
2022-12-01T14:39:42.386Z,37.27
2022-12-01T14:42:54.583Z,39.63
2022-12-01T14:45:58.084Z,37.57
2022-12-01T14:48:47.382Z,34.47
2022-12-01T14:51:37.614Z,39.23
2022-12-01T14:54:31.210Z,39.20
2022-12-01T14:57:25.412Z,34.27
2022-12-01T15:00:18.446Z,49.13
2022-12-01T15:03:10.753Z,40.53
2022-12-01T15:05:57.706Z,40.17
2022-12-01T15:08:58.433Z,37.10
2022-12-01T15:11:56.932Z,37.33
2022-12-01T15:14:51.434Z,40.80
2022-12-01T15:17:40.393Z,40.27
2022-12-01T15:20:37.867Z,40.27
2022-12-01T15:23:24.686Z,40.97
2022-12-01T15:26:20.707Z,38.17
2022-12-01T15:29:17.498Z,38.87
2022-12-01T15:32:09.884Z,39.77
2022-12-01T15:35:02.073Z,37.13
2022-12-01T15:37:51.242Z,40.07
2022-12-01T15:43:54.440Z,37.97
2022-12-01T15:46:41.387Z,31.03
2022-12-01T15:49:33.173Z,46.37
2022-12-01T15:52:22.622Z,39.03
2022-12-01T15:55:41.443Z,39.83
2022-12-01T15:59:09.310Z,35.10
2022-12-01T16:01:56.923Z,35.97
2022-12-01T16:04:45.533Z,34.77
2022-12-01T16:08:11.710Z,32.50
2022-12-01T16:10:46.735Z,36.57
2022-12-01T16:13:44.939Z,38.67
2022-12-01T16:16:43.808Z,38.57
2022-12-01T16:19:33.668Z,34.37
2022-12-01T16:22:23.081Z,44.87
2022-12-01T16:25:21.719Z,36.77
2022-12-01T16:28:21.766Z,28.90
2022-12-01T16:31:19.988Z,38.93
2022-12-01T16:34:24.497Z,35.90
2022-12-01T16:37:14.299Z,29.60
2022-12-01T16:41:08.581Z,32.63
2022-12-01T16:44:26.619Z,33.57
2022-12-01T16:47:02.918Z,31.50
2022-12-01T16:49:50.689Z,34.77
2022-12-01T16:52:45.975Z,33.17
2022-12-01T16:55:42.408Z,33.40
2022-12-01T16:58:31.110Z,30.20
2022-12-01T17:01:18.176Z,36.27
2022-12-01T17:04:07.715Z,31.67
2022-12-01T17:06:55.353Z,28.70
2022-12-01T17:09:41.768Z,30.13
2022-12-01T17:12:28.914Z,35.87
2022-12-01T17:15:17.128Z,34.73
2022-12-01T17:18:03.953Z,28.00
2022-12-01T17:20:59.420Z,33.77
2022-12-01T17:23:46.222Z,30.80
2022-12-01T17:26:33.168Z,34.53
2022-12-01T17:29:20.175Z,31.27
2022-12-01T17:32:10.925Z,35.87
2022-12-01T17:34:57.900Z,34.53
2022-12-01T17:37:46.612Z,37.07
2022-12-01T17:40:33.804Z,34.00
2022-12-01T17:43:20.887Z,32.00
2022-12-01T17:46:11.642Z,32.57
2022-12-01T17:49:00.877Z,33.87
2022-12-01T17:51:49.101Z,30.90
2022-12-01T17:54:36.264Z,31.07
2022-12-01T17:57:22.866Z,29.60
2022-12-01T18:00:11.609Z,26.67
2022-12-01T18:02:58.735Z,30.70
2022-12-01T18:05:56.737Z,31.10
2022-12-01T18:08:44.460Z,29.27
2022-12-01T18:11:32.174Z,22.77
2022-12-01T18:14:19.484Z,25.80
2022-12-01T18:17:06.798Z,27.13
2022-12-01T18:19:53.468Z,24.10
2022-12-01T18:22:41.662Z,25.93
2022-12-01T18:25:28.592Z,26.57
2022-12-01T18:28:15.637Z,26.10
2022-12-01T18:31:05.911Z,27.27
2022-12-01T18:33:53.293Z,28.57
2022-12-01T18:36:42.756Z,25.40
2022-12-01T18:39:31.150Z,25.37
2022-12-01T18:42:18.143Z,25.90
2022-12-01T18:45:05.205Z,24.40
2022-12-01T18:47:52.358Z,26.23
2022-12-01T18:50:39.241Z,29.63
2022-12-01T18:53:26.149Z,27.87
2022-12-01T18:56:15.787Z,25.17
2022-12-01T18:59:09.441Z,26.70
2022-12-01T19:01:56.710Z,26.07
2022-12-01T19:04:43.907Z,25.67
2022-12-01T19:07:30.644Z,23.83
2022-12-01T19:10:17.874Z,30.80
2022-12-01T19:13:06.408Z,27.83
2022-12-01T19:15:53.127Z,28.30
2022-12-01T19:18:40.874Z,26.43
2022-12-01T19:21:28.173Z,26.60
2022-12-01T19:24:14.898Z,29.10
2022-12-01T19:27:01.885Z,29.43
2022-12-01T19:29:50.111Z,25.77
2022-12-01T19:32:37.435Z,24.17
2022-12-01T19:35:24.636Z,27.77
2022-12-01T19:38:11.644Z,27.70
2022-12-01T19:41:01.371Z,29.13
2022-12-01T19:43:49.119Z,25.87
2022-12-01T19:46:37.549Z,29.03
2022-12-01T19:49:24.728Z,29.07
2022-12-01T19:52:11.692Z,28.60
2022-12-01T19:54:59.796Z,26.03
2022-12-01T19:57:51.088Z,36.97
2022-12-01T20:00:38.221Z,31.47
2022-12-01T20:03:26.121Z,28.20
2022-12-01T20:06:19.573Z,27.50
2022-12-01T20:09:09.475Z,32.43
2022-12-01T20:11:56.772Z,33.13
2022-12-01T20:14:43.912Z,38.70
2022-12-01T20:17:30.827Z,32.77
2022-12-01T20:20:19.188Z,33.80
2022-12-01T20:23:05.990Z,30.67
2022-12-01T20:25:52.601Z,32.80
2022-12-01T20:28:41.628Z,35.80
2022-12-01T20:31:31.574Z,33.83
2022-12-01T20:34:22.628Z,33.53
2022-12-01T20:37:11.070Z,34.07
2022-12-01T20:39:57.819Z,31.50
2022-12-01T20:42:44.239Z,34.87
2022-12-01T20:45:31.228Z,31.13
2022-12-01T20:48:18.618Z,32.73
2022-12-01T20:51:08.445Z,35.47
2022-12-01T20:54:26.134Z,27.50
2022-12-01T20:57:03.115Z,31.60
2022-12-01T20:59:50.007Z,35.47
2022-12-01T21:02:38.318Z,33.03
2022-12-01T21:05:25.848Z,34.67
2022-12-01T21:08:15.064Z,35.27
2022-12-01T21:11:09.236Z,44.30
2022-12-01T21:13:55.260Z,30.90
2022-12-01T21:16:45.285Z,33.27
2022-12-01T21:19:46.998Z,37.90
2022-12-01T21:22:33.577Z,33.57
2022-12-01T21:25:24.544Z,40.37
2022-12-01T21:28:19.691Z,38.07
2022-12-01T21:31:14.923Z,33.53
2022-12-01T21:34:02.671Z,43.00
2022-12-01T21:36:52.632Z,36.13
2022-12-01T21:39:40.462Z,26.33
2022-12-01T21:42:32.496Z,34.70
2022-12-01T21:45:27.044Z,34.17
2022-12-01T21:48:18.307Z,31.10
2022-12-01T21:51:19.384Z,36.03
2022-12-01T21:54:13.255Z,27.30
2022-12-01T21:57:00.293Z,34.93
2022-12-01T21:59:47.157Z,30.40
2022-12-01T22:02:49.229Z,39.23
2022-12-01T22:05:40.574Z,26.73
2022-12-01T22:08:30.460Z,29.87
2022-12-01T22:11:21.880Z,30.80
2022-12-01T22:14:17.213Z,28.83
2022-12-01T22:17:19.733Z,22.77
2022-12-01T22:20:23.629Z,28.50
2022-12-01T22:23:13.953Z,33.37
2022-12-01T22:26:00.669Z,26.10
2022-12-01T22:28:48.324Z,24.17
2022-12-01T22:31:36.230Z,34.63
2022-12-01T22:34:23.034Z,24.10
2022-12-01T22:37:20.458Z,26.80
2022-12-01T22:40:36.962Z,32.30
2022-12-01T22:43:44.911Z,25.87
2022-12-01T22:46:35.224Z,25.43
2022-12-01T22:49:24.499Z,29.63
2022-12-01T22:52:30.650Z,25.43
2022-12-01T22:55:20.444Z,31.87
2022-12-01T22:58:24.607Z,28.23
2022-12-01T23:01:28.697Z,28.90
2022-12-01T23:04:27.626Z,23.63
2022-12-01T23:07:33.728Z,25.13
2022-12-01T23:10:23.176Z,33.33
2022-12-01T23:13:16.491Z,26.37
2022-12-01T23:16:03.195Z,28.47
2022-12-01T23:18:50.144Z,28.17
2022-12-01T23:21:37.610Z,23.93
2022-12-01T23:24:28.662Z,27.83
2022-12-01T23:27:19.402Z,23.27
2022-12-01T23:30:08.629Z,25.87
2022-12-01T23:33:10.771Z,26.00
2022-12-01T23:36:02.041Z,36.23
2022-12-01T23:38:53.209Z,31.47
2022-12-01T23:41:43.985Z,29.47
2022-12-01T23:44:41.751Z,30.77
2022-12-01T23:47:30.423Z,24.53
2022-12-01T23:50:23.163Z,28.03
2022-12-01T23:53:26.736Z,31.77
2022-12-01T23:56:18.122Z,26.67
2022-12-01T23:59:13.223Z,25.03
